createdAt,value
2022-08-25T00:00:25.825Z,23.23
2022-08-25T00:02:57.861Z,25.15
2022-08-25T00:05:29.471Z,28.77
2022-08-25T00:08:02.177Z,32.88
2022-08-25T00:10:33.169Z,27.02
2022-08-25T00:13:05.666Z,26.00
2022-08-25T00:15:35.389Z,33.78
2022-08-25T00:18:05.457Z,26.15
2022-08-25T00:20:49.062Z,27.27
2022-08-25T00:23:18.990Z,24.92
2022-08-25T00:25:48.826Z,22.58
2022-08-25T00:28:21.197Z,30.02
2022-08-25T00:30:50.892Z,27.13
2022-08-25T00:33:21.276Z,26.70
2022-08-25T00:35:50.915Z,23.88
2022-08-25T00:38:20.552Z,26.10
2022-08-25T00:41:05.960Z,29.55
2022-08-25T00:43:46.353Z,24.83
2022-08-25T00:46:18.771Z,31.08
2022-08-25T00:48:50.879Z,24.42
2022-08-25T00:51:22.286Z,24.63
2022-08-25T00:53:51.956Z,24.15
2022-08-25T00:56:21.677Z,23.80
2022-08-25T00:58:54.763Z,26.02
2022-08-25T01:01:24.433Z,26.95
2022-08-25T01:03:54.093Z,25.17
2022-08-25T01:06:23.984Z,29.20
2022-08-25T01:08:54.836Z,25.60
2022-08-25T01:11:24.538Z,31.70
2022-08-25T01:13:58.828Z,24.35
2022-08-25T01:16:28.789Z,28.67
2022-08-25T01:19:00.539Z,24.95
2022-08-25T01:21:34.642Z,26.38
2022-08-25T01:24:04.289Z,27.30
2022-08-25T01:26:35.340Z,35.28
2022-08-25T01:29:20.130Z,27.88
2022-08-25T01:31:49.963Z,24.15
2022-08-25T01:34:20.352Z,28.60
2022-08-25T01:36:52.650Z,29.17
2022-08-25T01:39:22.498Z,28.50
2022-08-25T01:42:13.731Z,26.15
2022-08-25T01:44:45.243Z,28.92
2022-08-25T01:47:15.335Z,26.70
2022-08-25T01:49:44.908Z,36.55
2022-08-25T01:52:18.673Z,29.45
2022-08-25T01:54:50.048Z,28.80
2022-08-25T01:57:19.711Z,27.80
2022-08-25T01:59:49.446Z,29.33
2022-08-25T02:02:19.222Z,27.10
2022-08-25T02:04:50.685Z,28.60
2022-08-25T02:07:23.169Z,29.98
2022-08-25T02:09:52.805Z,26.67
2022-08-25T02:12:22.383Z,28.95
2022-08-25T02:14:52.051Z,30.92
2022-08-25T02:17:21.649Z,24.02
2022-08-25T02:19:51.260Z,26.90
2022-08-25T02:22:23.459Z,33.58
2022-08-25T02:24:53.062Z,27.35
2022-08-25T02:27:24.424Z,25.55
2022-08-25T02:29:54.100Z,27.77
2022-08-25T02:32:23.689Z,28.20
2022-08-25T02:34:53.288Z,28.48
2022-08-25T02:37:25.551Z,32.03
2022-08-25T02:39:55.232Z,28.95
2022-08-25T02:42:24.904Z,28.27
2022-08-25T02:44:54.479Z,28.83
2022-08-25T02:47:26.930Z,25.75
2022-08-25T02:49:56.967Z,26.48
2022-08-25T02:52:29.229Z,33.70
2022-08-25T02:54:58.876Z,26.58
2022-08-25T02:57:28.549Z,29.77
2022-08-25T02:59:58.190Z,28.63
2022-08-25T03:02:28.036Z,28.52
2022-08-25T03:04:57.877Z,28.85
2022-08-25T03:07:30.262Z,27.25
2022-08-25T03:10:08.113Z,30.63
2022-08-25T03:12:37.759Z,28.45
2022-08-25T03:15:09.265Z,31.58
2022-08-25T03:17:45.719Z,31.90
2022-08-25T03:20:15.702Z,31.55
2022-08-25T03:22:47.924Z,29.05
2022-08-25T03:25:30.002Z,29.38
2022-08-25T03:27:59.712Z,30.40
2022-08-25T03:30:30.133Z,27.63
2022-08-25T03:32:59.743Z,29.38
2022-08-25T03:35:30.926Z,32.75
2022-08-25T03:38:03.696Z,33.45
2022-08-25T03:40:33.474Z,27.48
2022-08-25T03:43:04.068Z,28.63
2022-08-25T03:45:33.794Z,24.80
2022-08-25T03:48:03.555Z,36.33
2022-08-25T03:50:33.295Z,31.70
2022-08-25T03:53:05.585Z,35.70
2022-08-25T03:55:35.243Z,28.73
2022-08-25T03:58:04.965Z,28.60
2022-08-25T04:00:34.714Z,30.92
2022-08-25T04:03:04.328Z,30.55
2022-08-25T04:05:34.028Z,28.67
2022-08-25T04:08:08.161Z,30.17
2022-08-25T04:10:39.451Z,27.27
2022-08-25T04:13:09.147Z,28.67
2022-08-25T04:15:39.003Z,31.60
2022-08-25T04:18:08.727Z,29.27
2022-08-25T04:20:38.306Z,32.30
2022-08-25T04:23:10.721Z,30.48
2022-08-25T04:25:43.666Z,32.63
2022-08-25T04:28:15.826Z,29.02
2022-08-25T04:30:49.117Z,28.98
2022-08-25T04:33:21.329Z,30.65
2022-08-25T04:35:53.039Z,33.17
2022-08-25T04:38:25.264Z,35.85
2022-08-25T04:40:58.791Z,31.13
2022-08-25T04:43:28.568Z,34.42
2022-08-25T04:45:58.493Z,35.53
2022-08-25T04:48:28.736Z,32.80
2022-08-25T04:50:58.325Z,32.10
2022-08-25T04:53:30.544Z,32.70
2022-08-25T04:56:03.647Z,30.40
2022-08-25T04:58:33.667Z,33.72
2022-08-25T05:01:04.774Z,31.50
2022-08-25T05:03:35.223Z,31.35
2022-08-25T05:06:04.934Z,31.83
2022-08-25T05:08:37.743Z,31.80
2022-08-25T05:11:08.245Z,35.45
2022-08-25T05:13:38.843Z,34.35
2022-08-25T05:16:09.932Z,36.75
2022-08-25T05:18:41.198Z,30.05
2022-08-25T05:21:12.475Z,36.35
2022-08-25T05:23:44.929Z,49.47
2022-08-25T05:26:19.778Z,36.38
2022-08-25T05:28:51.454Z,36.88
2022-08-25T05:31:22.161Z,43.15
2022-08-25T05:33:51.928Z,37.83
2022-08-25T05:36:22.425Z,43.92
2022-08-25T05:38:54.613Z,36.10
2022-08-25T05:41:25.285Z,33.05
2022-08-25T05:43:55.175Z,38.33
2022-08-25T05:46:25.278Z,45.70
2022-08-25T05:48:54.937Z,41.15
2022-08-25T05:51:24.598Z,37.67
2022-08-25T05:53:57.214Z,46.15
2022-08-25T05:56:26.835Z,37.40
2022-08-25T05:58:57.001Z,46.30
2022-08-25T06:01:39.514Z,37.50
2022-08-25T06:04:09.137Z,37.20
2022-08-25T06:06:39.075Z,34.40
2022-08-25T06:09:11.433Z,36.25
2022-08-25T06:11:42.085Z,31.20
2022-08-25T06:14:12.601Z,34.25
2022-08-25T06:16:42.488Z,34.28
2022-08-25T06:19:12.871Z,35.85
2022-08-25T06:21:42.615Z,33.28
2022-08-25T06:24:15.851Z,31.42
2022-08-25T06:26:45.926Z,34.58
2022-08-25T06:29:16.214Z,36.47
2022-08-25T06:31:46.546Z,34.28
2022-08-25T06:34:16.471Z,34.47
2022-08-25T06:36:49.034Z,35.97
2022-08-25T06:39:21.803Z,33.30
2022-08-25T06:41:54.037Z,33.97
2022-08-25T06:44:23.705Z,32.35
2022-08-25T06:46:53.911Z,31.00
2022-08-25T06:49:24.049Z,41.05
2022-08-25T06:51:53.903Z,34.25
2022-08-25T06:54:26.154Z,33.25
2022-08-25T06:56:55.768Z,28.02
2022-08-25T06:59:32.177Z,29.15
2022-08-25T07:02:03.305Z,31.75
2022-08-25T07:04:33.406Z,26.83
2022-08-25T07:07:03.500Z,26.80
2022-08-25T07:09:39.144Z,31.50
2022-08-25T07:12:09.562Z,24.90
2022-08-25T07:14:39.218Z,27.17
2022-08-25T07:17:10.560Z,27.25
2022-08-25T07:19:42.227Z,34.45
2022-08-25T07:22:11.851Z,25.80
2022-08-25T07:24:44.108Z,29.55
2022-08-25T07:27:13.713Z,31.38
2022-08-25T07:29:43.333Z,30.33
2022-08-25T07:32:12.963Z,24.13
2022-08-25T07:34:54.997Z,25.92
2022-08-25T07:40:19.938Z,31.02
2022-08-25T07:42:49.706Z,27.17
2022-08-25T07:45:20.696Z,23.77
2022-08-25T07:47:53.958Z,30.40
2022-08-25T07:50:26.137Z,25.42
2022-08-25T07:52:55.761Z,27.67
2022-08-25T07:55:28.405Z,20.85
2022-08-25T07:57:59.872Z,23.02
2022-08-25T08:00:30.410Z,23.40
2022-08-25T08:03:00.344Z,23.85
2022-08-25T08:05:33.745Z,24.45
2022-08-25T08:08:03.788Z,23.60
2022-08-25T08:11:03.267Z,25.27
2022-08-25T08:13:26.864Z,23.20
2022-08-25T08:15:56.537Z,20.48
2022-08-25T08:18:26.225Z,27.35
2022-08-25T08:20:55.842Z,24.02
2022-08-25T08:23:27.944Z,23.60
2022-08-25T08:26:00.888Z,29.73
2022-08-25T08:28:31.355Z,20.67
2022-08-25T08:31:01.027Z,21.17
2022-08-25T08:33:31.616Z,22.48
2022-08-25T08:36:06.071Z,30.52
2022-08-25T08:38:36.425Z,27.38
2022-08-25T08:41:24.265Z,24.67
2022-08-25T08:43:57.176Z,25.70
2022-08-25T08:46:28.104Z,29.80
2022-08-25T08:49:03.414Z,41.83
2022-08-25T08:51:39.750Z,24.73
2022-08-25T08:54:15.529Z,21.63
2022-08-25T08:56:52.845Z,20.38
2022-08-25T08:59:30.520Z,24.25
2022-08-25T09:02:02.442Z,26.00
2022-08-25T09:04:34.712Z,20.75
2022-08-25T09:07:07.822Z,24.35
2022-08-25T09:09:40.260Z,22.60
2022-08-25T09:12:18.118Z,24.02
2022-08-25T09:14:57.526Z,19.90
2022-08-25T09:17:31.810Z,26.33
2022-08-25T09:20:23.986Z,25.15
2022-08-25T09:22:56.991Z,23.60
2022-08-25T09:25:52.527Z,21.92
2022-08-25T09:28:29.613Z,23.35
2022-08-25T09:31:02.256Z,24.80
2022-08-25T09:33:34.208Z,21.83
2022-08-25T09:36:08.772Z,19.77
2022-08-25T09:38:38.900Z,20.63
2022-08-25T09:41:11.452Z,20.83
2022-08-25T09:43:44.834Z,17.65
2022-08-25T09:46:16.029Z,22.73
2022-08-25T09:48:56.109Z,20.00
2022-08-25T09:51:28.541Z,16.52
2022-08-25T09:54:01.484Z,22.05
2022-08-25T09:56:50.945Z,17.00
2022-08-25T09:59:34.728Z,20.70
2022-08-25T10:02:06.778Z,26.35
2022-08-25T10:04:38.693Z,17.00
2022-08-25T10:07:24.168Z,23.23
2022-08-25T10:09:57.568Z,19.30
2022-08-25T10:12:28.231Z,24.58
2022-08-25T10:15:00.504Z,20.65
2022-08-25T10:17:31.565Z,25.20
2022-08-25T10:20:17.337Z,23.88
2022-08-25T10:22:50.456Z,21.55
2022-08-25T10:25:25.616Z,27.75
2022-08-25T10:27:58.591Z,18.50
2022-08-25T10:30:33.741Z,18.55
2022-08-25T10:33:10.025Z,18.90
2022-08-25T10:35:46.597Z,17.13
2022-08-25T10:38:22.625Z,14.68
2022-08-25T10:41:00.469Z,26.85
2022-08-25T10:43:34.351Z,21.15
2022-08-25T10:46:09.565Z,18.98
2022-08-25T10:48:55.524Z,20.35
2022-08-25T10:51:45.913Z,24.42
2022-08-25T10:54:28.252Z,16.23
2022-08-25T10:57:01.977Z,23.27
2022-08-25T10:59:37.577Z,19.92
2022-08-25T11:02:22.194Z,19.45
2022-08-25T11:04:56.194Z,20.73
2022-08-25T11:07:28.172Z,16.92
2022-08-25T11:10:01.919Z,19.55
2022-08-25T11:12:35.055Z,15.93
2022-08-25T11:15:08.524Z,23.02
2022-08-25T11:17:43.000Z,20.02
2022-08-25T11:20:26.626Z,18.67
2022-08-25T11:23:11.649Z,16.10
2022-08-25T11:25:44.031Z,17.15
2022-08-25T11:28:15.956Z,14.85
2022-08-25T11:30:46.494Z,20.17
2022-08-25T11:33:17.421Z,20.15
2022-08-25T11:35:53.998Z,18.52
2022-08-25T11:38:31.266Z,15.50
2022-08-25T11:41:11.084Z,17.98
2022-08-25T11:43:49.371Z,24.08
2022-08-25T11:46:40.234Z,20.00
2022-08-25T11:49:21.801Z,15.23
2022-08-25T11:51:54.600Z,17.13
2022-08-25T11:54:37.192Z,15.40
2022-08-25T11:57:08.737Z,12.77
2022-08-25T11:59:56.062Z,18.95
2022-08-25T12:02:34.097Z,16.27
2022-08-25T12:05:04.394Z,20.45
2022-08-25T12:07:49.680Z,20.23
2022-08-25T12:10:26.179Z,21.10
2022-08-25T12:12:59.783Z,20.75
2022-08-25T12:15:31.386Z,16.73
2022-08-25T12:18:12.806Z,15.63
2022-08-25T12:20:58.410Z,19.52
2022-08-25T12:23:30.918Z,15.85
2022-08-25T12:26:05.667Z,17.67
2022-08-25T12:28:44.941Z,21.13
2022-08-25T12:31:22.416Z,17.08
2022-08-25T12:33:57.901Z,25.60
2022-08-25T12:36:31.641Z,17.85
2022-08-25T12:39:24.302Z,18.52
2022-08-25T12:45:10.716Z,17.35
2022-08-25T12:47:44.340Z,15.13
2022-08-25T12:50:29.464Z,19.58
2022-08-25T12:53:00.310Z,15.57
2022-08-25T12:55:30.089Z,19.02
2022-08-25T12:58:03.685Z,21.88
2022-08-25T13:00:35.953Z,18.20
2022-08-25T13:03:23.193Z,18.00
2022-08-25T13:06:05.928Z,18.37
2022-08-25T13:08:56.115Z,17.08
2022-08-25T13:11:27.952Z,17.63
2022-08-25T13:14:03.687Z,18.00
2022-08-25T13:16:34.063Z,16.45
2022-08-25T13:19:08.337Z,17.13
2022-08-25T13:21:39.758Z,14.70
2022-08-25T13:24:12.702Z,14.45
2022-08-25T13:26:48.360Z,16.50
2022-08-25T13:29:22.991Z,17.95
2022-08-25T13:31:54.094Z,17.38
2022-08-25T13:34:34.511Z,12.15
2022-08-25T13:37:21.262Z,18.27
2022-08-25T13:39:56.170Z,17.83
2022-08-25T13:42:29.035Z,17.75
2022-08-25T13:45:01.693Z,14.13
2022-08-25T13:47:45.269Z,23.95
2022-08-25T13:50:20.628Z,14.15
2022-08-25T13:52:51.697Z,19.65
2022-08-25T13:55:27.443Z,15.55
2022-08-25T13:57:59.373Z,18.52
2022-08-25T14:00:35.108Z,17.77
2022-08-25T14:03:12.621Z,14.48
2022-08-25T14:05:44.037Z,16.30
2022-08-25T14:08:32.416Z,17.60
2022-08-25T14:11:14.897Z,22.42
2022-08-25T14:13:46.111Z,17.25
2022-08-25T14:16:22.233Z,16.52
2022-08-25T14:18:58.642Z,13.00
2022-08-25T14:21:29.921Z,16.42
2022-08-25T14:24:00.247Z,19.42
2022-08-25T14:26:29.917Z,18.83
2022-08-25T14:29:00.261Z,13.40
2022-08-25T14:31:34.297Z,17.02
2022-08-25T14:34:05.405Z,15.30
2022-08-25T14:36:36.285Z,18.40
2022-08-25T14:39:08.906Z,27.80
2022-08-25T14:41:40.911Z,16.20
2022-08-25T14:44:11.727Z,17.40
2022-08-25T14:46:47.154Z,12.35
2022-08-25T14:49:24.969Z,25.75
2022-08-25T14:51:55.444Z,16.63
2022-08-25T14:54:27.313Z,16.85
2022-08-25T14:56:57.483Z,14.38
2022-08-25T14:59:27.999Z,13.60
2022-08-25T15:02:01.655Z,16.30
2022-08-25T15:04:32.880Z,17.17
2022-08-25T15:07:23.250Z,19.42
2022-08-25T15:09:50.877Z,16.00
2022-08-25T15:12:46.115Z,17.98
2022-08-25T15:15:13.432Z,18.13
2022-08-25T15:17:47.248Z,18.17
2022-08-25T15:20:19.273Z,17.15
2022-08-25T15:22:49.013Z,25.20
2022-08-25T15:25:18.905Z,19.38
2022-08-25T15:27:48.996Z,17.00
2022-08-25T15:30:18.758Z,14.75
2022-08-25T15:32:51.279Z,18.55
2022-08-25T15:35:27.610Z,19.73
2022-08-25T15:37:58.656Z,15.73
2022-08-25T15:40:28.439Z,15.00
2022-08-25T15:42:58.207Z,18.25
2022-08-25T15:45:28.445Z,30.15
2022-08-25T15:48:00.792Z,16.35
2022-08-25T15:50:30.540Z,21.67
2022-08-25T15:53:00.152Z,20.17
2022-08-25T15:55:29.832Z,18.83
2022-08-25T15:57:59.479Z,14.20
2022-08-25T16:00:29.180Z,22.27
2022-08-25T16:03:04.159Z,17.65
2022-08-25T16:05:33.867Z,19.67
2022-08-25T16:08:03.504Z,16.05
2022-08-25T16:10:36.265Z,25.25
2022-08-25T16:13:06.185Z,15.38
2022-08-25T16:15:38.687Z,17.75
2022-08-25T16:18:11.145Z,16.75
2022-08-25T16:20:40.764Z,14.32
2022-08-25T16:23:10.354Z,23.55
2022-08-25T16:25:41.824Z,22.83
2022-08-25T16:28:12.010Z,22.50
2022-08-25T16:30:42.678Z,16.60
2022-08-25T16:33:22.542Z,20.67
2022-08-25T16:35:52.186Z,17.30
2022-08-25T16:38:21.797Z,20.40
2022-08-25T16:40:51.450Z,18.80
2022-08-25T16:43:21.565Z,15.65
2022-08-25T16:45:59.532Z,21.58
2022-08-25T16:48:34.048Z,25.58
2022-08-25T16:51:03.776Z,14.70
2022-08-25T16:53:47.323Z,22.05
2022-08-25T16:56:18.492Z,25.08
2022-08-25T16:58:48.547Z,15.05
2022-08-25T17:01:22.038Z,16.33
2022-08-25T17:03:55.855Z,18.23
2022-08-25T17:06:26.194Z,20.05
2022-08-25T17:08:55.861Z,26.08
2022-08-25T17:11:26.978Z,27.48
2022-08-25T17:13:58.916Z,25.15
2022-08-25T17:16:30.137Z,13.35
2022-08-25T17:19:04.619Z,18.73
2022-08-25T17:21:37.826Z,22.40
2022-08-25T17:24:08.055Z,19.52
2022-08-25T17:26:39.753Z,27.27
2022-08-25T17:29:10.019Z,30.17
2022-08-25T17:31:40.408Z,20.90
2022-08-25T17:34:16.320Z,23.27
2022-08-25T17:36:47.489Z,25.80
2022-08-25T17:39:18.596Z,19.02
2022-08-25T17:41:48.686Z,24.15
2022-08-25T17:44:18.380Z,22.55
2022-08-25T17:46:49.366Z,24.02
2022-08-25T17:49:22.566Z,18.35
2022-08-25T17:51:52.783Z,19.45
2022-08-25T17:54:22.424Z,24.02
2022-08-25T17:56:52.800Z,22.33
2022-08-25T17:59:22.744Z,21.98
2022-08-25T18:01:55.462Z,12.45
2022-08-25T18:04:29.724Z,14.35
2022-08-25T18:07:00.286Z,20.58
2022-08-25T18:09:30.278Z,17.55
2022-08-25T18:12:00.271Z,21.67
2022-08-25T18:14:30.274Z,22.48
2022-08-25T18:17:01.805Z,17.45
2022-08-25T18:19:34.337Z,16.90
2022-08-25T18:22:06.455Z,16.83
2022-08-25T18:24:36.773Z,18.05
2022-08-25T18:27:07.502Z,23.92
2022-08-25T18:29:38.032Z,16.95
2022-08-25T18:32:10.531Z,14.38
2022-08-25T18:34:45.708Z,15.85
2022-08-25T18:37:28.051Z,18.52
2022-08-25T18:40:10.435Z,17.05
2022-08-25T18:42:40.443Z,12.73
2022-08-25T18:45:12.619Z,15.10
2022-08-25T18:47:42.857Z,18.35
2022-08-25T18:50:15.659Z,19.55
2022-08-25T18:52:45.933Z,17.77
2022-08-25T18:55:15.971Z,16.80
2022-08-25T18:57:46.677Z,17.05
2022-08-25T19:00:18.673Z,21.83
2022-08-25T19:02:50.411Z,15.80
2022-08-25T19:05:25.063Z,15.35
2022-08-25T19:07:55.156Z,16.33
2022-08-25T19:10:25.241Z,14.15
2022-08-25T19:12:56.951Z,19.65
2022-08-25T19:15:27.617Z,12.88
2022-08-25T19:17:58.928Z,21.15
2022-08-25T19:20:35.281Z,15.40
2022-08-25T19:23:07.760Z,16.23
2022-08-25T19:25:41.499Z,20.33
2022-08-25T19:28:13.080Z,13.02
2022-08-25T19:30:50.420Z,15.45
2022-08-25T19:33:42.588Z,14.68
2022-08-25T19:36:17.059Z,15.90
2022-08-25T19:38:47.821Z,15.63
2022-08-25T19:41:18.024Z,16.55
2022-08-25T19:43:56.781Z,15.75
2022-08-25T19:46:32.353Z,21.55
2022-08-25T19:49:07.735Z,23.35
2022-08-25T19:51:44.214Z,18.60
2022-08-25T19:54:18.787Z,14.75
2022-08-25T19:56:54.961Z,17.75
2022-08-25T19:59:25.846Z,13.15
2022-08-25T20:01:55.708Z,16.92
2022-08-25T20:04:25.517Z,21.60
2022-08-25T20:06:58.534Z,19.45
2022-08-25T20:09:39.045Z,16.33
2022-08-25T20:15:03.640Z,17.33
2022-08-25T20:17:34.141Z,13.55
2022-08-25T20:20:05.192Z,15.00
2022-08-25T20:22:38.162Z,15.55
2022-08-25T20:25:13.454Z,11.98
2022-08-25T20:27:44.809Z,20.00
2022-08-25T20:30:16.583Z,15.18
2022-08-25T20:32:47.032Z,15.68
2022-08-25T20:35:19.667Z,15.75
2022-08-25T20:37:53.177Z,17.73
2022-08-25T20:40:25.369Z,17.35
2022-08-25T20:42:55.838Z,19.25
2022-08-25T20:45:25.711Z,17.27
2022-08-25T20:47:55.333Z,12.80
2022-08-25T20:50:25.774Z,17.20
2022-08-25T20:52:58.863Z,20.33
2022-08-25T20:55:30.703Z,19.13
2022-08-25T20:58:00.508Z,17.60
2022-08-25T21:00:30.156Z,13.00
2022-08-25T21:02:59.769Z,19.05
2022-08-25T21:05:30.182Z,24.52
2022-08-25T21:08:03.956Z,19.13
2022-08-25T21:10:33.626Z,17.17
2022-08-25T21:13:03.567Z,22.85
2022-08-25T21:15:34.460Z,19.23
2022-08-25T21:18:04.283Z,16.70
2022-08-25T21:20:46.163Z,13.95
2022-08-25T21:23:18.789Z,20.52
2022-08-25T21:25:48.483Z,12.85
2022-08-25T21:28:18.262Z,16.38
2022-08-25T21:30:50.801Z,19.27
2022-08-25T21:33:26.337Z,17.65
2022-08-25T21:35:58.130Z,17.00
2022-08-25T21:38:30.809Z,13.25
2022-08-25T21:41:00.725Z,22.17
2022-08-25T21:43:30.295Z,17.70
2022-08-25T21:46:00.046Z,15.50
2022-08-25T21:48:29.785Z,15.70
2022-08-25T21:51:06.359Z,19.35
2022-08-25T21:53:38.595Z,17.13
2022-08-25T21:56:08.843Z,15.27
2022-08-25T21:58:39.282Z,14.15
2022-08-25T22:01:11.239Z,18.08
2022-08-25T22:03:42.403Z,18.17
2022-08-25T22:06:21.923Z,16.60
2022-08-25T22:08:54.572Z,18.77
2022-08-25T22:11:24.157Z,17.42
2022-08-25T22:13:55.196Z,13.80
2022-08-25T22:16:27.377Z,21.30
2022-08-25T22:18:59.649Z,13.85
2022-08-25T22:21:32.093Z,20.98
2022-08-25T22:24:04.476Z,16.10
2022-08-25T22:26:35.044Z,21.10
2022-08-25T22:29:04.777Z,19.55
2022-08-25T22:31:36.231Z,24.83
2022-08-25T22:34:07.471Z,17.38
2022-08-25T22:36:38.165Z,15.07
2022-08-25T22:39:10.946Z,20.88
2022-08-25T22:41:41.677Z,20.38
2022-08-25T22:44:12.374Z,14.85
2022-08-25T22:46:41.992Z,18.90
2022-08-25T22:49:14.999Z,16.85
2022-08-25T22:51:46.910Z,13.73
2022-08-25T22:54:19.397Z,18.45
2022-08-25T22:56:49.037Z,15.68
2022-08-25T22:59:18.706Z,15.25
2022-08-25T23:01:48.554Z,18.13
2022-08-25T23:04:19.066Z,16.70
2022-08-25T23:07:03.388Z,15.50
2022-08-25T23:09:35.610Z,16.15
2022-08-25T23:12:05.386Z,15.38
2022-08-25T23:14:36.806Z,19.10
2022-08-25T23:17:07.696Z,15.52
2022-08-25T23:19:37.473Z,16.33
2022-08-25T23:22:11.103Z,21.42
2022-08-25T23:24:44.448Z,23.55
2022-08-25T23:27:15.671Z,16.42
2022-08-25T23:29:47.436Z,18.65
2022-08-25T23:32:18.471Z,22.95
2022-08-25T23:34:49.041Z,19.52
2022-08-25T23:37:19.588Z,20.00
2022-08-25T23:39:51.938Z,16.00
2022-08-25T23:42:22.141Z,16.40
2022-08-25T23:44:51.814Z,19.33
2022-08-25T23:47:21.603Z,22.40
2022-08-25T23:49:52.316Z,16.48
2022-08-25T23:52:21.962Z,19.40
2022-08-25T23:54:54.430Z,18.08
2022-08-25T23:57:24.178Z,15.70
2022-08-25T23:59:54.293Z,23.75
